KSSF - San Antonio/Stinson, TX, US

Issued at 0540 UTC 13 Aug 2022
Updated at 0930 UTC 13 Aug 2022
Potential Impact None Slight Moderate High
Time0853Z 13/10Z 13/11Z 13/12Z 13/13Z 13/14Z 13/15Z 13/16Z 13/17Z 13/18Z 13/19Z 13/20Z 13/21Z 13/22Z>>
Type OBS PRVL PRVL PRVL PRVL PRVL PRVL PRVL PRVL PRVL
  [PRB30]  
PRVL
  [PRB30]  
PRVL
  [PRB30]  
PRVL
  [PRB30]  
PRVL
  [PRB30]  
VIS 10 >6 >6 >6 >6 >6 >6 >6 >6 >6
  [4]  
>6
  [4]  
>6
  [4]  
>6
  [4]  
>6
  [4]  
CIG -- -- -- -- -- -- -- -- 120 120
  [100]  
120
  [100]  
120
  [100]  
120
  [100]  
120
  [100]  
Cover CLR SCT SCT SCT SCT SCT SCT SCT BKN BKN
  [BKN]  
BKN
  [BKN]  
BKN
  [BKN]  
BKN
  [BKN]  
BKN
  [BKN]  
FltCat VFR VFR VFR VFR VFR VFR VFR VFR VFR VFR
  [MVFR]  
VFR
  [MVFR]  
VFR
  [MVFR]  
VFR
  [MVFR]  
VFR
  [MVFR]  
WX -- -- -- -- -- -- -- -- -- --
  [TSRA BR]  
--
  [TSRA BR]  
--
  [TSRA BR]  
--
  [TSRA BR]  
--
  [TSRA BR]  
WDir VRB 100 100 100 100 100 100 100 50 50
[50]
50
[50]
50
[50]
50
[50]
50
[50]
WSpd 0 4 4 4 4 4 4 4 8 8
  [8]  
8
  [8]  
8
  [8]  
8
  [8]  
8
  [8]  
WGst -- -- -- -- -- -- -- -- -- --
  [--]  
--
  [--]  
--
  [--]  
--
  [--]  
--
  [--]  
WSHgt -- -- -- -- -- -- -- -- -- --
[--]
--
[--]
--
[--]
--
[--]
--
[--]
WSDir -- -- -- -- -- -- -- -- -- --
[--]
--
[--]
--
[--]
--
[--]
--
[--]
WSSpd -- -- -- -- -- -- -- -- -- --
[--]
--
[--]
--
[--]
--
[--]
--
[--]
Raw TAF
KSSF 130540Z 1306/1406 10004KT P6SM SCT150 SCT250
  FM131700 05008KT P6SM SCT070 BKN120
  PROB30 1318/1324 4SM TSRA BR BKN100CB
  FM140100 07007KT P6SM SCT120 BKN250


Raw METAR
KSSF 130853Z AUTO 00000KT 10SM CLR 26/23 A2997 RMK AO2 SLP137 T02610233 52002 $
KSSF 130753Z AUTO 13003KT 10SM BKN080 27/23 A2997 RMK AO2 SLP134 T02720228 $
KSSF 130653Z AUTO 13003KT 10SM OVC090 27/23 A2997 RMK AO2 SLP134 T02720228 $

METAR Board
Radar Display
Forecast Discussion
For situational awareness. Not to be used for flight planning purposes.